Terminal Aerodrome Forecast
Issued by NWS La Crosse, WI

Home | Current Version | Previous Version | Text Only | Print | Product List | Glossary On
Versions: 1 2 3 4 5 6 7 8 9 10 11 12 13 14 15 16 17 18 19 20 21 22 23 24 25 26 27 28 29 30 31 32 33
000
FTUS43 KARX 262331
TAFLSE
TAF
KLSE 262331Z 2700/2724 33008KT 2SM -SN OVC015
     FM270100 33007KT 3SM -SN OVC020
     FM270300 32007KT P6SM OVC020
     FM270600 32010KT P6SM OVC025
     FM271500 32009KT P6SM SCT025=

USA.gov is the U.S. government's official web portal to all federal, state and local government web resources and services.